Time;durP1;ratioP1;P1;durP2;ratioP2;P2;SDS_P1;SDS_P2;PMS_P1;PMS_P2;Temp;Humidity;BMP_temperature;BMP_pressure;BME280_temperature;BME280_humidity;BME280_pressure;Samples;Min_cycle;Max_cycle;Signal;HPM_P1;HPM_P2
2022/03/22 00:00:15;;;;;;;;;;;9.50;99.90;;;;;;5074751;28;20369;-76
2022/03/22 00:02:42;;;;;;;;;;;9.50;99.90;;;;;;5074093;28;20009;-76
2022/03/22 00:05:08;;;;;;;;;;;9.50;99.90;;;;;;5074853;28;19974;-76
2022/03/22 00:07:34;;;;;;;;;;;9.40;99.90;;;;;;5074114;28;20396;-75
2022/03/22 00:09:59;;;;;;;;;;;9.40;99.90;;;;;;5074548;28;19908;-76
2022/03/22 00:12:25;;;;;;;;;;;9.40;99.90;;;;;;5074609;28;19912;-76
2022/03/22 00:14:51;;;;;;;;;;;9.40;99.90;;;;;;5073740;28;19912;-76
2022/03/22 00:17:17;;;;;;;;;;;9.40;99.90;;;;;;5074448;28;19916;-76
2022/03/22 00:19:42;;;;;;;;;;;9.40;99.90;;;;;;5073795;28;19909;-76
2022/03/22 00:22:11;;;;;;;;;;;9.40;99.90;;;;;;5074520;28;19991;-77
2022/03/22 00:24:38;;;;;;;;;;;9.40;99.90;;;;;;5073851;28;19908;-76
2022/03/22 00:27:03;;;;;;;;;;;9.40;99.90;;;;;;5074493;28;19908;-76
2022/03/22 00:29:29;;;;;;;;;;;9.30;99.90;;;;;;5073727;28;20425;-76
2022/03/22 00:31:56;;;;;;;;;;;9.40;99.90;;;;;;5073929;28;19908;-76
2022/03/22 00:34:23;;;;;;;;;;;9.30;99.90;;;;;;5074399;28;19909;-76
2022/03/22 00:36:50;;;;;;;;;;;9.30;99.90;;;;;;5073740;28;19920;-76
2022/03/22 00:39:15;;;;;;;;;;;9.40;99.90;;;;;;5072836;28;19912;-76
2022/03/22 00:41:41;;;;;;;;;;;9.30;99.90;;;;;;5073443;28;19954;-76
2022/03/22 00:44:08;;;;;;;;;;;9.30;99.90;;;;;;5074434;28;19908;-76
2022/03/22 00:46:34;;;;;;;;;;;9.30;99.90;;;;;;5073268;28;19952;-76
2022/03/22 00:49:01;;;;;;;;;;;9.20;99.90;;;;;;5073258;28;19908;-76
2022/03/22 00:51:27;;;;;;;;;;;9.30;99.90;;;;;;5077138;28;19914;-76
2022/03/22 00:53:52;;;;;;;;;;;9.20;99.90;;;;;;5075096;28;20289;-76
2022/03/22 00:56:18;;;;;;;;;;;9.20;99.90;;;;;;5074189;28;20376;-76
2022/03/22 00:58:44;;;;;;;;;;;9.20;99.90;;;;;;5073666;28;19951;-75
2022/03/22 01:01:09;;;;;;;;;;;9.20;99.90;;;;;;5074612;28;19917;-76
2022/03/22 01:03:35;;;;;;;;;;;9.20;99.90;;;;;;5073516;28;19912;-76
2022/03/22 01:06:01;;;;;;;;;;;9.20;99.90;;;;;;5089735;28;19909;-76
2022/03/22 01:08:29;;;;;;;;;;;9.20;99.90;;;;;;5073880;28;19909;-76
2022/03/22 01:10:54;;;;;;;;;;;9.20;99.90;;;;;;5073972;28;19966;-76
2022/03/22 01:13:24;;;;;;;;;;;9.20;99.90;;;;;;5074279;28;19913;-76
2022/03/22 01:15:50;;;;;;;;;;;9.10;99.90;;;;;;5071822;28;19920;-76
2022/03/22 01:18:16;;;;;;;;;;;9.10;99.90;;;;;;5073895;28;19913;-76
2022/03/22 01:20:46;;;;;;;;;;;9.00;99.90;;;;;;5073091;28;20291;-76
2022/03/22 01:23:12;;;;;;;;;;;9.00;99.90;;;;;;5073758;28;20338;-76
2022/03/22 01:25:39;;;;;;;;;;;9.00;99.90;;;;;;5072304;28;19951;-76
2022/03/22 01:28:07;;;;;;;;;;;9.00;99.90;;;;;;5072243;28;20315;-76
2022/03/22 01:30:33;;;;;;;;;;;8.90;99.90;;;;;;5071819;28;20250;-76
2022/03/22 01:32:59;;;;;;;;;;;8.80;99.90;;;;;;5073491;28;19988;-76
2022/03/22 01:35:25;;;;;;;;;;;8.80;99.90;;;;;;5073297;28;19908;-76
2022/03/22 01:37:52;;;;;;;;;;;8.80;99.90;;;;;;5072760;28;20525;-76
2022/03/22 01:40:19;;;;;;;;;;;8.80;99.90;;;;;;5073574;28;19999;-76
2022/03/22 01:42:44;;;;;;;;;;;8.80;99.90;;;;;;5072879;28;19908;-76
2022/03/22 01:45:10;;;;;;;;;;;8.70;99.90;;;;;;5073176;28;19915;-76
2022/03/22 01:47:37;;;;;;;;;;;8.80;99.90;;;;;;5072711;28;19938;-76
2022/03/22 01:50:06;;;;;;;;;;;8.80;99.90;;;;;;5073078;28;20278;-76
2022/03/22 01:52:34;;;;;;;;;;;8.80;99.90;;;;;;5072646;28;19915;-76
2022/03/22 01:54:59;;;;;;;;;;;8.80;99.90;;;;;;5073495;28;19920;-76
2022/03/22 01:57:25;;;;;;;;;;;8.80;99.90;;;;;;5072920;28;19943;-76
2022/03/22 01:59:51;;;;;;;;;;;8.80;99.90;;;;;;5072690;28;19912;-76
2022/03/22 02:07:47;;;;;;;;;;;9.00;99.90;;;;;;5072606;28;19962;-76
2022/03/22 02:10:13;;;;;;;;;;;9.10;99.90;;;;;;5073188;28;19912;-76
2022/03/22 02:12:39;;;;;;;;;;;9.10;99.90;;;;;;5072417;28;19962;-76
2022/03/22 02:15:05;;;;;;;;;;;9.20;99.90;;;;;;5072998;28;19916;-76
2022/03/22 02:17:31;;;;;;;;;;;9.30;99.90;;;;;;5072902;28;19917;-76
2022/03/22 02:19:58;;;;;;;;;;;9.30;99.90;;;;;;5072272;28;19931;-76
2022/03/22 02:22:36;;;;;;;;;;;9.40;99.90;;;;;;5072924;28;19908;-76
2022/03/22 02:25:02;;;;;;;;;;;9.40;99.90;;;;;;5072637;28;20281;-76
2022/03/22 02:27:29;;;;;;;;;;;9.50;99.90;;;;;;5073291;28;19919;-75
2022/03/22 02:29:55;;;;;;;;;;;9.50;99.90;;;;;;5072343;28;19996;-76
2022/03/22 02:32:24;;;;;;;;;;;9.50;99.90;;;;;;5072845;28;19956;-76
2022/03/22 02:34:49;;;;;;;;;;;9.60;99.90;;;;;;5071960;28;20369;-76
2022/03/22 02:37:15;;;;;;;;;;;9.60;99.90;;;;;;5074195;28;19926;-77
2022/03/22 02:39:41;;;;;;;;;;;9.60;99.90;;;;;;5072415;28;20349;-76
2022/03/22 02:42:07;;;;;;;;;;;9.60;99.90;;;;;;5072932;28;19954;-76
2022/03/22 02:44:32;;;;;;;;;;;9.60;99.90;;;;;;5072566;28;20351;-76
2022/03/22 02:46:58;;;;;;;;;;;9.60;99.90;;;;;;5072084;28;20379;-75
2022/03/22 02:49:24;;;;;;;;;;;9.60;99.90;;;;;;5072395;28;19909;-76
2022/03/22 02:51:49;;;;;;;;;;;9.50;99.90;;;;;;5072131;28;19913;-75
2022/03/22 02:54:15;;;;;;;;;;;9.50;99.90;;;;;;5072319;28;20015;-75
2022/03/22 02:56:41;;;;;;;;;;;9.50;99.90;;;;;;5071989;28;19924;-75
2022/03/22 02:59:06;;;;;;;;;;;9.40;99.90;;;;;;5072740;28;19908;-75
2022/03/22 03:01:32;;;;;;;;;;;9.40;99.90;;;;;;5072451;28;20273;-75
2022/03/22 03:03:59;;;;;;;;;;;9.40;99.90;;;;;;5071815;28;19908;-75
2022/03/22 03:06:28;;;;;;;;;;;9.40;99.90;;;;;;5072729;28;19908;-75
2022/03/22 03:08:55;;;;;;;;;;;9.40;99.90;;;;;;5071838;28;19908;-75
2022/03/22 03:11:21;;;;;;;;;;;9.30;99.90;;;;;;5072506;28;19909;-75
2022/03/22 03:16:30;;;;;;;;;;;9.40;99.90;;;;;;5076157;28;19923;-75
2022/03/22 03:18:56;;;;;;;;;;;9.50;99.90;;;;;;5075888;28;20671;-75
2022/03/22 03:21:21;;;;;;;;;;;9.50;99.90;;;;;;5076362;28;19948;-76
2022/03/22 03:23:47;;;;;;;;;;;9.50;99.90;;;;;;5082889;28;19992;-75
2022/03/22 03:26:12;;;;;;;;;;;9.50;99.90;;;;;;5096545;28;20002;-76
2022/03/22 03:28:38;;;;;;;;;;;9.50;99.90;;;;;;5096823;28;19908;-76
2022/03/22 03:31:04;;;;;;;;;;;9.50;99.90;;;;;;5096286;28;19908;-75
2022/03/22 03:33:30;;;;;;;;;;;9.60;99.90;;;;;;5096389;28;19955;-76
2022/03/22 03:35:56;;;;;;;;;;;9.60;99.90;;;;;;5095580;28;20285;-76
2022/03/22 03:38:22;;;;;;;;;;;9.60;99.90;;;;;;5095041;28;19908;-75
2022/03/22 03:43:42;;;;;;;;;;;9.60;99.90;;;;;;5058087;28;19944;-76
2022/03/22 03:48:52;;;;;;;;;;;9.60;99.90;;;;;;5095463;28;19961;-76
2022/03/22 03:51:19;;;;;;;;;;;9.70;99.90;;;;;;5096285;28;19908;-76
2022/03/22 03:53:45;;;;;;;;;;;9.70;99.90;;;;;;5103751;28;20376;-76
2022/03/22 03:56:10;;;;;;;;;;;9.70;99.90;;;;;;5096143;28;19959;-76
2022/03/22 03:58:36;;;;;;;;;;;9.80;99.90;;;;;;5095861;28;20254;-76
2022/03/22 04:01:02;;;;;;;;;;;9.70;99.90;;;;;;5095450;28;19962;-76
2022/03/22 04:03:27;;;;;;;;;;;9.70;99.90;;;;;;5095896;28;19919;-76
2022/03/22 04:05:53;;;;;;;;;;;9.70;99.90;;;;;;5095148;28;20015;-77
2022/03/22 04:08:18;;;;;;;;;;;9.80;99.90;;;;;;5095941;28;19915;-76
2022/03/22 04:10:44;;;;;;;;;;;9.70;99.90;;;;;;5094874;28;19915;-76
2022/03/22 04:13:10;;;;;;;;;;;9.70;99.90;;;;;;5095377;28;19908;-76
2022/03/22 04:15:35;;;;;;;;;;;9.70;99.90;;;;;;5095610;28;20011;-76
2022/03/22 04:18:01;;;;;;;;;;;9.70;99.90;;;;;;5095092;28;20108;-76
2022/03/22 04:20:26;;;;;;;;;;;9.60;99.90;;;;;;5095586;28;19908;-76
2022/03/22 04:22:52;;;;;;;;;;;9.50;99.90;;;;;;5095258;28;20349;-76
2022/03/22 04:25:18;;;;;;;;;;;9.50;99.90;;;;;;5095606;28;19909;-76
2022/03/22 04:33:13;;;;;;;;;;;9.40;99.90;;;;;;5095071;28;19950;-76
2022/03/22 04:35:39;;;;;;;;;;;9.30;99.90;;;;;;5094810;28;19908;-76
2022/03/22 04:38:05;;;;;;;;;;;9.30;99.90;;;;;;5094645;28;20340;-76
2022/03/22 04:40:31;;;;;;;;;;;9.30;99.90;;;;;;5093914;28;19957;-76
2022/03/22 04:42:57;;;;;;;;;;;9.30;99.90;;;;;;5094614;28;19974;-76
2022/03/22 04:45:23;;;;;;;;;;;9.20;99.90;;;;;;5093865;28;20365;-76
2022/03/22 04:47:49;;;;;;;;;;;9.20;99.90;;;;;;5094151;28;19909;-76
2022/03/22 04:50:15;;;;;;;;;;;9.30;99.90;;;;;;5094989;28;19908;-76
2022/03/22 04:58:10;;;;;;;;;;;9.30;99.90;;;;;;5094616;28;19923;-76
2022/03/22 05:00:35;;;;;;;;;;;9.30;99.90;;;;;;5094815;28;19912;-76
2022/03/22 05:03:04;;;;;;;;;;;9.30;99.90;;;;;;5094093;28;19908;-76
2022/03/22 05:08:14;;;;;;;;;;;9.30;99.90;;;;;;5097379;28;19899;-76
2022/03/22 05:10:39;;;;;;;;;;;9.30;99.90;;;;;;5105793;28;19908;-76
2022/03/22 05:13:05;;;;;;;;;;;9.30;99.90;;;;;;5093948;28;20353;-76
2022/03/22 05:15:32;;;;;;;;;;;9.30;99.90;;;;;;5094179;28;19908;-76
2022/03/22 05:17:58;;;;;;;;;;;9.30;99.90;;;;;;5093516;28;20316;-76
2022/03/22 05:20:24;;;;;;;;;;;9.30;99.90;;;;;;5094241;28;19914;-76
2022/03/22 05:22:50;;;;;;;;;;;9.30;99.90;;;;;;5093783;28;19908;-76
2022/03/22 05:25:15;;;;;;;;;;;9.30;99.90;;;;;;5094118;28;19958;-76
2022/03/22 05:27:41;;;;;;;;;;;9.30;99.90;;;;;;5093979;28;19962;-76
2022/03/22 05:30:07;;;;;;;;;;;9.30;99.90;;;;;;5093242;28;19904;-76
2022/03/22 05:32:33;;;;;;;;;;;9.30;99.90;;;;;;5093845;28;19912;-76
2022/03/22 05:34:58;;;;;;;;;;;9.30;99.90;;;;;;5092995;28;19908;-76
2022/03/22 05:37:24;;;;;;;;;;;9.30;99.90;;;;;;5093257;28;19916;-76
2022/03/22 05:39:50;;;;;;;;;;;9.20;99.90;;;;;;5092992;28;20269;-76
2022/03/22 05:42:16;;;;;;;;;;;9.30;99.90;;;;;;5093621;28;20006;-76
2022/03/22 05:44:43;;;;;;;;;;;9.30;99.90;;;;;;5093788;28;20365;-76
2022/03/22 05:47:09;;;;;;;;;;;9.30;99.90;;;;;;5093463;28;19904;-76
2022/03/22 05:49:36;;;;;;;;;;;9.30;99.90;;;;;;5093636;28;20007;-76
2022/03/22 05:52:02;;;;;;;;;;;9.30;99.90;;;;;;5092821;28;20246;-76
2022/03/22 05:54:28;;;;;;;;;;;9.30;99.90;;;;;;5093363;28;20006;-76
2022/03/22 05:56:53;;;;;;;;;;;9.30;99.90;;;;;;5092959;28;20015;-76
2022/03/22 05:59:19;;;;;;;;;;;9.20;99.90;;;;;;5093712;28;19953;-76
2022/03/22 06:01:44;;;;;;;;;;;9.20;99.90;;;;;;5093472;28;20019;-76
2022/03/22 06:04:11;;;;;;;;;;;9.20;99.90;;;;;;5092645;28;19908;-76
2022/03/22 06:06:37;;;;;;;;;;;9.20;99.90;;;;;;5093139;28;20315;-76
2022/03/22 06:09:03;;;;;;;;;;;9.20;99.90;;;;;;5092549;28;19908;-76
2022/03/22 06:11:35;;;;;;;;;;;9.20;99.90;;;;;;5093400;28;19908;-75
2022/03/22 06:14:04;;;;;;;;;;;9.20;99.90;;;;;;5092927;28;19912;-75
2022/03/22 06:16:30;;;;;;;;;;;9.20;99.90;;;;;;5091874;28;19923;-76
2022/03/22 06:18:56;;;;;;;;;;;9.20;99.90;;;;;;5092449;28;19912;-76
2022/03/22 06:21:22;;;;;;;;;;;9.20;99.90;;;;;;5093221;28;20366;-76
2022/03/22 06:23:48;;;;;;;;;;;9.20;99.90;;;;;;5092923;28;19979;-76
2022/03/22 06:26:14;;;;;;;;;;;9.20;99.90;;;;;;5100284;28;20306;-76
2022/03/22 06:28:40;;;;;;;;;;;9.20;99.90;;;;;;5093635;28;19908;-76
2022/03/22 06:31:06;;;;;;;;;;;9.20;99.90;;;;;;5092777;28;19935;-76
2022/03/22 06:33:32;;;;;;;;;;;9.30;99.90;;;;;;5092913;28;19908;-75
2022/03/22 06:35:57;;;;;;;;;;;9.30;99.90;;;;;;5091923;28;19913;-75
2022/03/22 06:38:23;;;;;;;;;;;9.30;99.90;;;;;;5092973;28;19908;-75
2022/03/22 06:40:50;;;;;;;;;;;9.30;99.90;;;;;;5092786;28;19985;-76
2022/03/22 06:43:16;;;;;;;;;;;9.30;99.90;;;;;;5091107;28;19955;-75
2022/03/22 06:45:43;;;;;;;;;;;9.30;99.90;;;;;;5092784;28;20400;-75
2022/03/22 06:48:09;;;;;;;;;;;9.40;99.90;;;;;;5094181;28;20349;-76
2022/03/22 06:50:36;;;;;;;;;;;9.40;99.90;;;;;;5097009;28;19908;-76
2022/03/22 06:53:02;;;;;;;;;;;9.50;99.90;;;;;;5096531;28;19908;-75
2022/03/22 06:55:29;;;;;;;;;;;9.50;99.90;;;;;;5096556;28;20368;-75
2022/03/22 06:57:55;;;;;;;;;;;9.50;99.90;;;;;;5094696;28;20284;-75
2022/03/22 07:00:20;;;;;;;;;;;9.50;99.90;;;;;;5096654;28;19908;-75
2022/03/22 07:02:47;;;;;;;;;;;9.50;99.90;;;;;;5096273;28;19919;-75
2022/03/22 07:05:12;;;;;;;;;;;9.60;99.90;;;;;;5096241;28;19908;-76
2022/03/22 07:07:38;;;;;;;;;;;9.60;99.90;;;;;;5096636;28;19915;-75
2022/03/22 07:10:05;;;;;;;;;;;9.60;99.90;;;;;;5096080;28;19914;-75
2022/03/22 07:12:30;;;;;;;;;;;9.70;99.90;;;;;;5096358;28;19915;-75
2022/03/22 07:14:56;;;;;;;;;;;9.70;99.90;;;;;;5095888;28;19908;-75
2022/03/22 07:17:22;;;;;;;;;;;9.80;99.90;;;;;;5096282;28;19951;-75
2022/03/22 07:19:47;;;;;;;;;;;9.90;99.90;;;;;;5096350;28;19955;-75
2022/03/22 07:22:13;;;;;;;;;;;10.00;99.90;;;;;;5095711;28;19908;-75
2022/03/22 07:24:38;;;;;;;;;;;10.10;99.90;;;;;;5096196;28;19962;-75
2022/03/22 07:27:04;;;;;;;;;;;10.20;99.90;;;;;;5095370;28;19908;-75
2022/03/22 07:29:30;;;;;;;;;;;10.30;99.90;;;;;;5096083;28;19916;-75
2022/03/22 07:31:59;;;;;;;;;;;10.30;99.90;;;;;;5095887;28;19919;-75
2022/03/22 07:34:25;;;;;;;;;;;10.40;99.90;;;;;;5096074;28;19908;-75
2022/03/22 07:36:53;;;;;;;;;;;10.50;99.90;;;;;;5095185;28;19917;-75
2022/03/22 07:39:20;;;;;;;;;;;10.60;99.90;;;;;;5095305;28;19915;-75
2022/03/22 07:41:46;;;;;;;;;;;10.60;99.90;;;;;;5096452;28;19912;-76
2022/03/22 07:44:12;;;;;;;;;;;10.70;99.90;;;;;;5095694;28;19908;-76
2022/03/22 07:46:41;;;;;;;;;;;10.80;99.90;;;;;;5095594;28;19947;-75
2022/03/22 07:54:36;;;;;;;;;;;11.00;99.90;;;;;;5095110;28;19969;-76
2022/03/22 07:57:02;;;;;;;;;;;11.10;99.90;;;;;;5094822;28;20353;-76
2022/03/22 07:59:27;;;;;;;;;;;11.10;99.90;;;;;;5095057;28;19912;-76
2022/03/22 08:01:53;;;;;;;;;;;11.20;99.90;;;;;;5128417;27;19915;-76
2022/03/22 08:04:19;;;;;;;;;;;11.20;99.90;;;;;;5095651;28;19994;-76
2022/03/22 08:06:45;;;;;;;;;;;11.30;99.90;;;;;;5095117;28;19960;-76
2022/03/22 08:09:11;;;;;;;;;;;11.40;99.90;;;;;;5094156;28;19962;-76
2022/03/22 08:11:36;;;;;;;;;;;11.50;99.90;;;;;;5095371;28;20473;-76
2022/03/22 08:14:03;;;;;;;;;;;11.60;99.90;;;;;;5094720;28;19908;-76
2022/03/22 08:16:28;;;;;;;;;;;11.60;99.90;;;;;;5095184;28;19916;-77
2022/03/22 08:18:54;;;;;;;;;;;11.70;99.90;;;;;;5094810;28;20287;-76
2022/03/22 08:21:20;;;;;;;;;;;11.80;99.90;;;;;;5094748;28;19915;-76
2022/03/22 08:23:45;;;;;;;;;;;11.90;99.90;;;;;;5094820;28;19912;-76
2022/03/22 08:26:11;;;;;;;;;;;12.00;99.90;;;;;;5126925;27;19908;-76
2022/03/22 08:28:37;;;;;;;;;;;12.10;99.90;;;;;;5095068;28;19916;-76
2022/03/22 08:31:02;;;;;;;;;;;12.20;99.90;;;;;;5107025;28;20359;-76
2022/03/22 08:33:28;;;;;;;;;;;12.20;99.90;;;;;;5099532;28;19908;-75
2022/03/22 08:35:54;;;;;;;;;;;12.30;99.90;;;;;;5109258;28;19907;-76
2022/03/22 08:38:20;;;;;;;;;;;12.40;99.90;;;;;;5114594;28;20804;-76
2022/03/22 08:40:46;;;;;;;;;;;12.40;99.90;;;;;;5113377;28;19912;-76
2022/03/22 08:43:12;;;;;;;;;;;12.50;99.90;;;;;;5113814;28;19960;-76
2022/03/22 08:45:38;;;;;;;;;;;12.60;99.90;;;;;;5115205;28;19912;-76
2022/03/22 08:48:09;;;;;;;;;;;12.60;99.90;;;;;;5113989;28;19955;-76
2022/03/22 08:50:35;;;;;;;;;;;12.70;99.90;;;;;;5093336;28;19908;-76
2022/03/22 08:53:01;;;;;;;;;;;12.70;99.90;;;;;;5093206;28;19915;-75
2022/03/22 08:55:28;;;;;;;;;;;12.80;99.90;;;;;;5093999;28;19912;-76
2022/03/22 08:57:54;;;;;;;;;;;12.90;99.90;;;;;;5094773;28;20365;-76
2022/03/22 09:00:21;;;;;;;;;;;13.00;99.90;;;;;;5093811;28;19909;-76
2022/03/22 09:02:47;;;;;;;;;;;13.00;99.90;;;;;;5094057;28;19916;-76
2022/03/22 09:07:58;;;;;;;;;;;13.00;99.90;;;;;;5093584;28;19916;-76
2022/03/22 09:10:24;;;;;;;;;;;13.00;99.90;;;;;;5092584;28;19914;-76
2022/03/22 09:12:50;;;;;;;;;;;13.00;99.90;;;;;;5093238;28;20238;-76
2022/03/22 09:15:17;;;;;;;;;;;13.00;99.90;;;;;;5093426;28;19919;-74
2022/03/22 09:17:42;;;;;;;;;;;13.00;99.90;;;;;;5093659;28;20315;-76
2022/03/22 09:20:12;;;;;;;;;;;13.10;99.90;;;;;;5091449;28;19958;-76
2022/03/22 09:22:38;;;;;;;;;;;13.10;99.90;;;;;;5093808;28;19985;-75
2022/03/22 09:25:03;;;;;;;;;;;13.20;99.90;;;;;;5093565;28;19908;-76
2022/03/22 09:27:29;;;;;;;;;;;13.20;99.90;;;;;;5093514;28;19909;-75
2022/03/22 09:29:56;;;;;;;;;;;13.30;99.90;;;;;;5093418;28;20376;-75
2022/03/22 09:32:22;;;;;;;;;;;13.40;99.90;;;;;;5092910;28;20066;-76
2022/03/22 09:34:47;;;;;;;;;;;13.60;99.90;;;;;;5093735;28;20419;-75
2022/03/22 09:37:17;;;;;;;;;;;13.70;99.90;;;;;;5092695;28;20360;-76
2022/03/22 09:39:43;;;;;;;;;;;13.80;99.90;;;;;;5093554;28;19908;-76
2022/03/22 09:42:08;;;;;;;;;;;13.90;99.90;;;;;;5092901;28;19908;-77
2022/03/22 09:44:34;;;;;;;;;;;13.90;99.90;;;;;;5093623;28;19915;-77
2022/03/22 09:47:01;;;;;;;;;;;13.80;99.90;;;;;;5093898;28;19908;-77
2022/03/22 09:49:27;;;;;;;;;;;13.80;99.90;;;;;;5092655;28;19934;-77
2022/03/22 09:51:53;;;;;;;;;;;13.80;99.90;;;;;;5093575;28;20329;-78
2022/03/22 09:54:19;;;;;;;;;;;13.80;99.90;;;;;;5092557;28;20399;-77
2022/03/22 09:56:47;;;;;;;;;;;13.80;99.90;;;;;;5092145;28;20344;-77
2022/03/22 09:59:14;;;;;;;;;;;13.80;99.90;;;;;;5092852;28;19908;-77
2022/03/22 10:01:40;;;;;;;;;;;13.90;99.90;;;;;;5093341;28;19908;-77
2022/03/22 10:04:07;;;;;;;;;;;13.90;99.90;;;;;;5092552;28;19912;-78
2022/03/22 10:06:33;;;;;;;;;;;14.00;99.90;;;;;;5093043;28;19908;-75
2022/03/22 10:08:59;;;;;;;;;;;14.10;99.90;;;;;;5092619;28;19915;-74
2022/03/22 10:11:39;;;;;;;;;;;14.20;99.90;;;;;;5092244;28;19904;-76
2022/03/22 10:14:05;;;;;;;;;;;14.30;99.90;;;;;;5092578;28;19951;-76
2022/03/22 10:16:30;;;;;;;;;;;14.40;99.90;;;;;;5095097;28;19916;-76
2022/03/22 10:18:56;;;;;;;;;;;14.40;99.90;;;;;;5093692;28;20019;-76
2022/03/22 10:21:21;;;;;;;;;;;14.50;99.90;;;;;;5091759;28;19909;-76
2022/03/22 10:23:48;;;;;;;;;;;14.40;99.90;;;;;;5092672;28;19915;-76
2022/03/22 10:26:14;;;;;;;;;;;14.40;99.90;;;;;;5092136;28;19908;-76
2022/03/22 10:28:48;;;;;;;;;;;14.50;99.90;;;;;;5092758;28;20277;-76
2022/03/22 10:31:14;;;;;;;;;;;14.60;99.90;;;;;;5092307;28;19928;-76
2022/03/22 10:33:52;;;;;;;;;;;14.60;99.90;;;;;;5092328;28;19992;-76
2022/03/22 10:36:18;;;;;;;;;;;14.60;99.90;;;;;;5091867;28;19927;-76
2022/03/22 10:39:04;;;;;;;;;;;14.60;99.90;;;;;;5092777;28;20357;-76
2022/03/22 10:41:31;;;;;;;;;;;14.80;99.90;;;;;;5091202;28;19915;-76
2022/03/22 10:44:09;;;;;;;;;;;14.90;99.90;;;;;;5092615;28;19912;-76
2022/03/22 10:46:36;;;;;;;;;;;14.90;99.90;;;;;;5092130;28;20286;-76
2022/03/22 10:49:04;;;;;;;;;;;14.90;99.90;;;;;;5092435;28;19961;-76
2022/03/22 10:51:40;;;;;;;;;;;14.80;99.90;;;;;;5092154;28;19915;-76
2022/03/22 10:54:06;;;;;;;;;;;14.70;99.90;;;;;;5092086;28;19935;-76
2022/03/22 10:56:32;;;;;;;;;;;14.60;99.90;;;;;;5091037;28;19924;-76
2022/03/22 10:58:57;;;;;;;;;;;14.60;99.90;;;;;;5092542;28;20353;-76
2022/03/22 11:01:23;;;;;;;;;;;14.70;99.90;;;;;;5091645;28;19908;-76
2022/03/22 11:03:50;;;;;;;;;;;14.70;99.90;;;;;;5091937;28;19912;-76
2022/03/22 11:06:16;;;;;;;;;;;14.70;99.90;;;;;;5091697;28;20266;-76
2022/03/22 11:08:42;;;;;;;;;;;14.80;99.90;;;;;;5092545;28;19917;-76
2022/03/22 11:11:08;;;;;;;;;;;14.80;99.90;;;;;;5091759;28;19909;-77
2022/03/22 11:13:34;;;;;;;;;;;14.80;99.90;;;;;;5092184;28;19908;-76
2022/03/22 11:16:00;;;;;;;;;;;14.70;99.90;;;;;;5092177;28;19955;-76
2022/03/22 11:18:28;;;;;;;;;;;14.70;99.90;;;;;;5092128;28;20494;-76
2022/03/22 11:20:57;;;;;;;;;;;14.70;99.90;;;;;;5095413;28;19909;-76
2022/03/22 11:23:25;;;;;;;;;;;14.60;99.90;;;;;;5093015;28;19909;-77
2022/03/22 11:25:50;;;;;;;;;;;14.60;99.90;;;;;;5092001;28;19930;-77
2022/03/22 11:28:20;;;;;;;;;;;14.60;99.90;;;;;;5091563;28;20352;-77
2022/03/22 11:30:47;;;;;;;;;;;14.70;99.90;;;;;;5092307;28;19912;-77
2022/03/22 11:35:59;;;;;;;;;;;14.70;99.90;;;;;;5095879;28;19958;-76
2022/03/22 11:38:41;;;;;;;;;;;14.70;99.90;;;;;;5095601;28;20357;-77
2022/03/22 11:44:11;;;;;;;;;;;14.70;99.90;;;;;;5094990;28;19961;-77
2022/03/22 11:46:37;;;;;;;;;;;14.60;99.90;;;;;;5096003;28;20383;-77
2022/03/22 11:49:20;;;;;;;;;;;14.60;99.90;;;;;;5095363;28;19954;-77
2022/03/22 11:51:54;;;;;;;;;;;14.50;99.90;;;;;;5095434;28;19918;-77
2022/03/22 11:54:21;;;;;;;;;;;14.50;99.90;;;;;;5093262;28;19927;-77
2022/03/22 11:56:48;;;;;;;;;;;14.50;99.90;;;;;;5095630;28;19920;-77
2022/03/22 11:59:16;;;;;;;;;;;14.40;99.90;;;;;;5095126;28;19908;-77
2022/03/22 12:01:41;;;;;;;;;;;14.50;99.90;;;;;;5095239;28;20046;-77
2022/03/22 12:04:15;;;;;;;;;;;14.50;99.90;;;;;;5095503;28;19957;-77
2022/03/22 12:06:42;;;;;;;;;;;14.50;99.90;;;;;;5095516;28;19960;-77
2022/03/22 12:09:08;;;;;;;;;;;14.40;99.90;;;;;;5095400;28;19908;-77
2022/03/22 12:11:35;;;;;;;;;;;14.50;99.90;;;;;;5094697;28;19915;-77
2022/03/22 12:14:03;;;;;;;;;;;14.50;99.90;;;;;;5094907;28;19916;-77
2022/03/22 12:16:28;;;;;;;;;;;14.60;99.90;;;;;;5094785;28;20035;-77
2022/03/22 12:18:59;;;;;;;;;;;14.60;99.90;;;;;;5094942;28;19991;-76
2022/03/22 12:21:24;;;;;;;;;;;14.70;99.90;;;;;;5095002;28;20375;-77
2022/03/22 12:23:50;;;;;;;;;;;14.80;99.90;;;;;;5095119;28;19909;-77
2022/03/22 12:26:16;;;;;;;;;;;14.70;99.90;;;;;;5094377;28;20329;-77
2022/03/22 12:28:45;;;;;;;;;;;14.60;99.90;;;;;;5094918;28;19951;-77
2022/03/22 12:31:11;;;;;;;;;;;14.60;99.90;;;;;;5094671;28;19999;-77
2022/03/22 12:33:37;;;;;;;;;;;14.50;99.90;;;;;;5094957;28;20344;-77
2022/03/22 12:36:03;;;;;;;;;;;14.50;99.90;;;;;;5094779;28;19966;-77
2022/03/22 12:38:29;;;;;;;;;;;14.40;99.90;;;;;;5094214;28;19947;-76
2022/03/22 12:40:54;;;;;;;;;;;14.40;99.90;;;;;;5095022;28;19916;-76
2022/03/22 12:43:20;;;;;;;;;;;14.50;99.90;;;;;;5094290;28;19909;-76
2022/03/22 12:45:47;;;;;;;;;;;14.60;99.90;;;;;;5093530;28;19973;-76
2022/03/22 12:48:17;;;;;;;;;;;14.70;99.90;;;;;;5080844;28;19915;-76
2022/03/22 12:50:42;;;;;;;;;;;14.70;99.90;;;;;;5094671;28;20277;-76
2022/03/22 12:53:09;;;;;;;;;;;14.80;99.90;;;;;;5097704;28;19922;-76
2022/03/22 12:55:35;;;;;;;;;;;14.90;99.90;;;;;;5094110;28;19916;-76
2022/03/22 12:58:01;;;;;;;;;;;14.90;99.90;;;;;;5094286;28;19916;-75
2022/03/22 13:00:31;;;;;;;;;;;15.00;99.90;;;;;;5093253;28;19908;-76
2022/03/22 13:03:04;;;;;;;;;;;15.00;99.90;;;;;;5094470;28;19916;-76
2022/03/22 13:05:30;;;;;;;;;;;15.20;99.90;;;;;;5093934;28;19915;-76
2022/03/22 13:07:58;;;;;;;;;;;15.40;99.90;;;;;;5094287;28;19912;-76
2022/03/22 13:13:18;;;;;;;;;;;15.40;99.90;;;;;;5094346;28;20022;-76
2022/03/22 13:15:53;;;;;;;;;;;15.30;99.90;;;;;;5093644;28;20003;-76
2022/03/22 13:18:19;;;;;;;;;;;15.30;99.90;;;;;;5093253;28;20417;-76
2022/03/22 13:20:45;;;;;;;;;;;15.20;99.90;;;;;;5094150;28;20054;-75
2022/03/22 13:23:15;;;;;;;;;;;15.20;99.90;;;;;;5093768;28;19995;-76
2022/03/22 13:25:42;;;;;;;;;;;15.10;99.90;;;;;;5094166;28;19908;-76
2022/03/22 13:28:07;;;;;;;;;;;15.00;99.90;;;;;;5093906;28;19915;-78
2022/03/22 13:30:34;;;;;;;;;;;15.00;99.90;;;;;;5093364;28;19990;-76
2022/03/22 13:33:13;;;;;;;;;;;15.00;99.90;;;;;;5093606;28;20004;-77
2022/03/22 13:35:52;;;;;;;;;;;15.10;99.90;;;;;;5092137;28;19908;-76
2022/03/22 13:38:18;;;;;;;;;;;15.20;99.90;;;;;;5093003;28;20381;-78
2022/03/22 13:40:44;;;;;;;;;;;15.30;99.90;;;;;;5094020;28;19951;-76
2022/03/22 13:43:10;;;;;;;;;;;15.40;99.90;;;;;;5093713;28;19961;-77
2022/03/22 13:45:36;;;;;;;;;;;15.50;99.90;;;;;;5092903;28;20164;-76
2022/03/22 13:48:12;;;;;;;;;;;15.50;99.90;;;;;;5093342;28;19909;-76
2022/03/22 13:50:37;;;;;;;;;;;15.60;99.90;;;;;;5092998;28;19912;-76
2022/03/22 13:53:06;;;;;;;;;;;15.60;99.90;;;;;;5093398;28;19970;-76
2022/03/22 13:55:33;;;;;;;;;;;15.60;99.90;;;;;;5092996;28;19912;-76
2022/03/22 13:58:00;;;;;;;;;;;15.70;99.90;;;;;;5093349;28;19916;-77
2022/03/22 14:00:26;;;;;;;;;;;15.70;99.90;;;;;;5092729;28;19912;-76
2022/03/22 14:02:52;;;;;;;;;;;15.80;99.90;;;;;;5093172;28;20369;-76
2022/03/22 14:05:18;;;;;;;;;;;15.80;99.90;;;;;;5093862;28;19908;-77
2022/03/22 14:07:50;;;;;;;;;;;15.80;99.90;;;;;;5093124;28;19990;-77
2022/03/22 14:10:16;;;;;;;;;;;15.90;99.90;;;;;;5093120;28;19957;-76
2022/03/22 14:12:42;;;;;;;;;;;15.90;99.90;;;;;;5092889;28;19908;-76
2022/03/22 14:15:07;;;;;;;;;;;15.90;99.90;;;;;;5093195;28;19987;-76
2022/03/22 14:17:33;;;;;;;;;;;15.90;99.90;;;;;;5092277;28;19942;-76
2022/03/22 14:19:59;;;;;;;;;;;15.80;99.90;;;;;;5093059;28;19908;-76
2022/03/22 14:22:24;;;;;;;;;;;15.90;99.90;;;;;;5092342;28;19954;-76
2022/03/22 14:24:50;;;;;;;;;;;15.90;99.90;;;;;;5092790;28;20284;-76
2022/03/22 14:27:17;;;;;;;;;;;15.90;99.90;;;;;;5092972;28;19912;-76
2022/03/22 14:29:42;;;;;;;;;;;15.90;99.90;;;;;;5092638;28;19954;-76
2022/03/22 14:32:08;;;;;;;;;;;16.00;99.90;;;;;;5093008;28;19912;-77
2022/03/22 14:37:17;;;;;;;;;;;16.00;99.90;;;;;;5092395;28;19923;-77
2022/03/22 14:39:43;;;;;;;;;;;16.00;99.90;;;;;;5092420;28;19908;-76
2022/03/22 14:42:10;;;;;;;;;;;16.00;99.90;;;;;;5092764;28;19947;-76
2022/03/22 14:44:37;;;;;;;;;;;16.00;99.90;;;;;;5091914;28;20382;-76
2022/03/22 14:47:04;;;;;;;;;;;15.90;99.90;;;;;;5092891;28;19955;-76
2022/03/22 14:49:29;;;;;;;;;;;15.90;99.90;;;;;;5092101;28;19961;-76
2022/03/22 14:54:39;;;;;;;;;;;15.80;99.90;;;;;;5091975;28;19982;-77
2022/03/22 14:59:49;;;;;;;;;;;15.70;99.90;;;;;;5092126;28;19974;-76
2022/03/22 15:02:17;;;;;;;;;;;15.70;99.90;;;;;;5092359;28;20365;-76
2022/03/22 15:04:42;;;;;;;;;;;15.70;99.90;;;;;;5091965;28;20367;-76
2022/03/22 15:07:08;;;;;;;;;;;15.70;99.90;;;;;;5092627;28;19995;-76
2022/03/22 15:09:34;;;;;;;;;;;15.70;99.90;;;;;;5094246;28;19959;-77
2022/03/22 15:12:00;;;;;;;;;;;15.70;99.90;;;;;;5095962;28;19931;-77